Time;durP1;ratioP1;P1;durP2;ratioP2;P2;SDS_P1;SDS_P2;PMS_P1;PMS_P2;Temp;Humidity;BMP_temperature;BMP_pressure;BME280_temperature;BME280_humidity;BME280_pressure;Samples;Min_cycle;Max_cycle;Signal;HPM_P1;HPM_P2
2021/03/27 00:00:42;;;;;;;116.25;55.05;;;;;;;1.36;68.08;97653.06;1852699;77;25740;-84
2021/03/27 00:06:17;;;;;;;110.42;53.48;;;;;;;1.37;68.28;97655.58;1873383;76;35188;-82
2021/03/27 00:08:54;;;;;;;103.97;51.43;;;;;;;1.32;68.28;97647.71;1853038;77;26309;-82
2021/03/27 00:11:45;;;;;;;110.48;52.83;;;;;;;1.27;68.41;97645.97;1852666;77;28469;-84
2021/03/27 00:14:17;;;;;;;100.18;50.03;;;;;;;1.29;68.50;97646.67;1852588;77;25700;-82
2021/03/27 00:17:04;;;;;;;101.35;47.25;;;;;;;1.29;68.52;97646.17;1852765;76;25739;-82
2021/03/27 00:19:51;;;;;;;90.40;44.25;;;;;;;1.31;68.58;97639.38;1852652;77;25883;-82
2021/03/27 00:25:22;;;;;;;87.30;43.33;;;;;;;1.23;69.03;97633.94;1873432;75;34690;-82
2021/03/27 00:28:07;;;;;;;87.62;42.27;;;;;;;1.12;69.05;97635.47;1852778;77;25666;-82
2021/03/27 00:31:10;;;;;;;79.45;38.48;;;;;;;1.09;69.17;97636.10;1852636;77;29467;-83
2021/03/27 00:33:43;;;;;;;75.65;38.65;;;;;;;1.13;69.44;97633.16;1852404;77;25874;-82
2021/03/27 00:36:19;;;;;;;75.95;39.18;;;;;;;1.12;69.47;97634.98;1851519;77;25733;-82
2021/03/27 00:38:51;;;;;;;82.90;39.92;;;;;;;1.11;69.45;97639.95;1852078;77;26026;-82
2021/03/27 00:41:27;;;;;;;76.75;39.60;;;;;;;1.13;69.39;97634.48;1852690;77;25337;-81
2021/03/27 00:44:01;;;;;;;84.50;41.55;;;;;;;1.16;69.39;97631.55;1852714;77;28535;-81
2021/03/27 00:46:31;;;;;;;83.03;41.90;;;;;;;1.17;69.34;97625.24;1852634;76;25746;-82
2021/03/27 00:49:06;;;;;;;79.72;39.13;;;;;;;1.18;69.31;97627.76;1852593;77;25684;-82
2021/03/27 00:51:41;;;;;;;77.62;37.03;;;;;;;1.19;69.38;97620.12;1852720;77;25768;-82
2021/03/27 00:54:41;;;;;;;77.87;39.70;;;;;;;1.18;69.58;97621.11;1852440;77;25305;-81
2021/03/27 00:57:22;;;;;;;74.77;37.00;;;;;;;1.11;69.51;97621.34;1852786;77;27494;-82
2021/03/27 01:00:29;;;;;;;72.17;36.67;;;;;;;1.07;69.70;97616.83;1852492;76;25788;-82
2021/03/27 01:03:13;;;;;;;76.72;33.88;;;;;;;1.05;69.73;97620.12;1852278;77;25824;-82
2021/03/27 01:05:43;;;;;;;61.35;32.00;;;;;;;1.06;69.88;97615.16;1852626;77;25780;-83
2021/03/27 01:08:13;;;;;;;68.92;33.92;;;;;;;1.04;69.83;97620.27;1852624;77;25654;-82
2021/03/27 01:10:55;;;;;;;67.85;32.38;;;;;;;1.01;70.17;97617.40;1852639;76;28544;-82
2021/03/27 01:13:37;;;;;;;68.55;33.08;;;;;;;0.98;70.23;97610.20;1851890;77;25744;-81
2021/03/27 01:16:08;;;;;;;49.70;26.50;;;;;;;0.96;70.27;97607.72;1852882;77;25914;-82
2021/03/27 01:18:43;;;;;;;70.35;33.75;;;;;;;0.99;70.29;97607.40;1852922;77;26186;-83
2021/03/27 01:21:15;;;;;;;68.67;33.25;;;;;;;1.02;70.27;97616.91;1852624;77;26485;-82
2021/03/27 01:23:44;;;;;;;69.60;34.90;;;;;;;1.03;70.22;97607.95;1850343;77;27495;-82
2021/03/27 01:26:19;;;;;;;61.88;32.33;;;;;;;1.04;70.24;97605.15;1843532;77;26120;-81
2021/03/27 01:31:50;;;;;;;58.58;30.43;;;;;;;1.12;70.31;97599.58;1849123;76;34792;-83
2021/03/27 01:34:41;;;;;;;59.10;30.55;;;;;;;1.05;70.31;97602.84;1818955;78;25696;-84
2021/03/27 01:37:22;;;;;;;61.05;29.60;;;;;;;1.05;70.29;97600.67;1820148;78;27340;-81
2021/03/27 01:40:14;;;;;;;57.73;31.10;;;;;;;1.02;70.35;97603.13;1820403;77;25710;-82
2021/03/27 01:43:04;;;;;;;61.63;30.60;;;;;;;1.04;70.56;97596.34;1776525;78;25777;-83
2021/03/27 01:46:13;;;;;;;55.83;29.40;;;;;;;1.02;70.61;97600.47;1818793;78;26373;-82
2021/03/27 01:49:14;;;;;;;61.98;30.37;;;;;;;0.99;70.64;97590.61;1819916;78;25326;-81
2021/03/27 01:52:08;;;;;;;56.02;28.67;;;;;;;0.98;70.70;97592.43;1820112;77;28527;-82
2021/03/27 01:54:46;;;;;;;58.13;30.15;;;;;;;1.01;70.84;97593.47;1819934;78;26236;-82
2021/03/27 01:57:25;;;;;;;56.28;28.10;;;;;;;1.05;70.81;97590.04;1819997;78;25784;-83
2021/03/27 02:00:00;;;;;;;62.00;31.80;;;;;;;1.07;70.83;97588.91;1819768;78;25735;-81
2021/03/27 02:02:42;;;;;;;61.13;29.57;;;;;;;1.05;70.84;97583.39;1788439;78;25772;-81
2021/03/27 02:05:21;;;;;;;62.80;31.65;;;;;;;1.01;70.92;97584.17;1820124;78;28053;-82
2021/03/27 02:08:08;;;;;;;57.23;28.55;;;;;;;1.00;70.89;97577.18;1819135;78;26267;-81
2021/03/27 02:10:47;;;;;;;51.05;27.93;;;;;;;1.01;71.05;97582.84;1820017;78;26294;-82
2021/03/27 02:13:29;;;;;;;52.62;26.55;;;;;;;1.00;71.07;97581.16;1820018;77;25797;-81
2021/03/27 02:16:20;;;;;;;50.38;26.25;;;;;;;1.01;71.17;97584.17;1820117;78;25944;-82
2021/03/27 02:19:25;;;;;;;52.83;26.40;;;;;;;0.97;71.35;97581.45;1820034;78;28826;-82
2021/03/27 02:22:01;;;;;;;49.42;27.42;;;;;;;0.95;71.46;97580.79;1819893;78;25624;-81
2021/03/27 02:25:15;;;;;;;54.50;29.37;;;;;;;0.95;71.37;97575.47;1819741;78;25521;-81
2021/03/27 02:28:15;;;;;;;53.48;29.00;;;;;;;0.98;71.38;97571.17;1819328;78;26357;-82
2021/03/27 02:33:46;;;;;;;57.85;29.00;;;;;;;1.11;71.37;97570.82;1849198;76;35135;-81
2021/03/27 02:36:45;;;;;;;58.48;29.67;;;;;;;1.09;71.26;97572.30;1819990;77;25698;-81
2021/03/27 02:39:23;;;;;;;54.53;30.12;;;;;;;1.11;71.23;97570.82;1819944;77;27466;-82
2021/03/27 02:42:08;;;;;;;54.20;27.62;;;;;;;1.11;71.23;97577.96;1819907;78;25794;-82
2021/03/27 02:44:52;;;;;;;55.70;28.20;;;;;;;1.08;71.19;97573.80;1820054;78;25722;-81
2021/03/27 02:48:07;;;;;;;53.90;29.82;;;;;;;1.06;71.20;97573.95;1819784;78;26167;-82
2021/03/27 02:53:57;;;;;;;51.90;25.68;;;;;;;1.03;71.34;97568.92;1886894;76;34823;-84
2021/03/27 02:56:58;;;;;;;51.92;27.07;;;;;;;0.90;71.48;97567.09;1857850;77;25795;-83
2021/03/27 02:59:37;;;;;;;52.88;27.20;;;;;;;0.83;71.59;97567.34;1824981;77;27497;-83
2021/03/27 03:02:28;;;;;;;53.95;29.07;;;;;;;0.81;71.69;97560.50;1857747;77;26294;-82
2021/03/27 03:05:27;;;;;;;50.90;27.30;;;;;;;0.83;71.72;97563.36;1840657;77;25696;-82
2021/03/27 03:08:30;;;;;;;52.48;27.60;;;;;;;0.82;71.63;97555.04;1857723;77;25729;-83
2021/03/27 03:11:03;;;;;;;;;;;;;;;0.85;71.62;97562.69;1860625;77;25667;-82
2021/03/27 03:13:35;;;;;;;48.60;26.33;;;;;;;0.85;71.96;97561.37;1857855;77;28460;-82
2021/03/27 03:16:17;;;;;;;52.13;26.42;;;;;;;0.83;71.92;97561.19;1857844;77;25893;-82
2021/03/27 03:19:08;;;;;;;55.65;27.58;;;;;;;0.81;72.01;97563.16;1857878;77;25783;-84
2021/03/27 03:21:50;;;;;;;47.45;27.45;;;;;;;0.79;71.98;97554.48;1857742;77;25770;-82
2021/03/27 03:24:35;;;;;;;54.50;28.62;;;;;;;0.79;71.91;97552.67;1857874;77;26119;-82
2021/03/27 03:27:33;;;;;;;52.08;28.75;;;;;;;0.80;71.88;97553.02;1857626;77;26799;-82
2021/03/27 03:30:21;;;;;;;53.35;29.27;;;;;;;0.79;71.90;97554.48;1857446;77;26219;-82
2021/03/27 03:33:26;;;;;;;54.03;29.57;;;;;;;0.79;71.89;97550.01;1857686;77;25638;-82
2021/03/27 03:36:01;;;;;;;52.70;27.50;;;;;;;0.80;71.91;97546.37;1857386;77;26205;-82
2021/03/27 03:39:13;;;;;;;55.05;28.62;;;;;;;0.78;71.90;97537.70;1857650;77;25804;-82
2021/03/27 03:45:16;;;;;;;47.48;25.55;;;;;;;0.78;72.33;97540.36;1849193;76;35306;-84
2021/03/27 03:48:29;;;;;;;49.38;26.30;;;;;;;0.68;72.40;97542.23;1820454;78;26268;-81
2021/03/27 03:51:04;;;;;;;35.13;18.37;;;;;;;0.66;72.54;97539.72;1800490;79;28456;-82
2021/03/27 03:54:01;;;;;;;50.78;26.90;;;;;;;0.69;72.51;97535.94;1799971;79;26114;-82
2021/03/27 03:57:04;;;;;;;49.10;25.65;;;;;;;0.74;72.47;97538.97;1744825;81;25890;-82
2021/03/27 03:59:54;;;;;;;49.05;26.42;;;;;;;0.77;72.36;97531.20;1783266;80;25638;-82
2021/03/27 04:02:36;;;;;;;52.45;27.70;;;;;;;0.76;72.29;97534.36;1784137;80;25285;-83
2021/03/27 04:05:17;;;;;;;45.93;27.20;;;;;;;0.77;72.39;97529.88;1775737;79;28612;-82
2021/03/27 04:08:00;;;;;;;48.77;25.83;;;;;;;0.72;72.43;97534.32;1757196;81;25723;-83
2021/03/27 04:10:30;;;;;;;45.08;26.00;;;;;;;0.66;72.55;97525.59;1757286;81;34890;-83
2021/03/27 04:13:14;;;;;;;50.40;26.35;;;;;;;0.63;72.73;97525.88;1757072;80;25877;-81
2021/03/27 04:15:59;;;;;;;42.85;23.95;;;;;;;0.65;72.73;97526.58;1757068;81;25871;-83
2021/03/27 04:18:41;;;;;;;44.65;24.55;;;;;;;0.66;72.91;97525.59;1757088;81;27505;-83
2021/03/27 04:21:32;;;;;;;52.87;27.43;;;;;;;0.62;72.90;97522.88;1757149;81;25510;-82
2021/03/27 04:24:07;;;;;;;50.33;25.60;;;;;;;0.63;72.90;97525.88;1757023;81;25786;-82
2021/03/27 04:26:55;;;;;;;46.58;25.50;;;;;;;0.63;72.88;97515.25;1757054;80;25759;-82
2021/03/27 04:30:01;;;;;;;50.20;25.52;;;;;;;0.64;72.95;97520.91;1757055;80;25863;-83
2021/03/27 04:32:40;;;;;;;50.65;27.10;;;;;;;0.62;73.02;97522.88;1757060;81;27495;-81
2021/03/27 04:35:28;;;;;;;51.10;28.20;;;;;;;0.57;73.25;97515.86;1756932;81;25827;-82
2021/03/27 04:38:25;;;;;;;57.30;29.07;;;;;;;0.55;73.19;97525.78;1755791;81;25819;-84
2021/03/27 04:41:06;;;;;;;59.10;30.45;;;;;;;0.56;73.21;97520.82;1757104;80;25741;-84
2021/03/27 04:43:39;;;;;;;63.02;29.92;;;;;;;0.62;73.24;97518.89;1754947;81;25824;-84
2021/03/27 04:46:51;;;;;;;56.65;27.62;;;;;;;0.66;73.32;97520.28;1748030;82;27507;-84
2021/03/27 04:49:30;;;;;;;59.95;30.45;;;;;;;0.63;73.32;97527.20;1727319;80;26135;-85
2021/03/27 04:52:24;;;;;;;58.73;33.48;;;;;;;0.63;73.41;97519.23;1747913;81;25808;-83
2021/03/27 04:55:02;;;;;;;58.08;30.80;;;;;;;0.64;73.44;97527.55;1747840;81;26112;-84
2021/03/27 04:57:37;;;;;;;57.35;30.82;;;;;;;0.70;73.41;97529.64;1746662;81;25723;-84
2021/03/27 05:00:25;;;;;;;49.38;29.02;;;;;;;0.75;73.37;97532.67;1747478;81;26690;-84
2021/03/27 05:03:16;;;;;;;55.15;29.07;;;;;;;0.80;73.35;97534.41;1747322;80;25788;-84
2021/03/27 05:05:58;;;;;;;53.55;28.45;;;;;;;0.81;73.33;97529.45;1729922;82;25794;-85
2021/03/27 05:09:00;;;;;;;56.00;29.70;;;;;;;0.83;73.37;97521.33;1747590;81;25810;-87
2021/03/27 05:11:52;;;;;;;56.47;26.73;;;;;;;0.85;73.33;97521.50;1747670;82;25795;-84
2021/03/27 05:15:02;;;;;;;49.40;26.07;;;;;;;0.90;73.47;97524.56;1747411;82;28491;-83
2021/03/27 05:17:50;;;;;;;57.00;27.45;;;;;;;0.89;73.53;97518.91;1747260;82;26409;-83
2021/03/27 05:20:25;;;;;;;66.55;32.08;;;;;;;0.87;73.59;97518.21;1747404;82;25724;-83
2021/03/27 05:23:40;;;;;;;52.98;28.57;;;;;;;0.90;73.66;97511.28;1747373;82;25723;-84
2021/03/27 05:26:24;;;;;;;63.45;30.10;;;;;;;0.96;73.86;97518.67;1747215;81;26285;-82
2021/03/27 05:29:06;;;;;;;55.55;28.00;;;;;;;1.03;73.79;97523.72;1737745;82;27717;-83
2021/03/27 05:32:09;;;;;;;64.82;35.03;;;;;;;1.08;73.78;97525.45;1747445;81;26123;-83
2021/03/27 05:34:48;;;;;;;62.55;32.60;;;;;;;1.13;73.95;97519.67;1695590;80;25761;-83
2021/03/27 05:37:36;;;;;;;65.15;34.27;;;;;;;1.22;73.94;97508.63;1747195;81;25747;-83
2021/03/27 05:40:45;;;;;;;57.70;31.52;;;;;;;1.34;73.99;97512.73;1744175;81;25660;-83
2021/03/27 05:43:17;;;;;;;63.78;33.92;;;;;;;1.42;73.98;97515.00;1750473;81;28496;-83
2021/03/27 05:46:10;;;;;;;63.15;32.05;;;;;;;1.55;73.92;97513.30;1750305;81;25626;-82
2021/03/27 05:49:34;;;;;;;59.80;32.33;;;;;;;1.66;73.86;97518.38;1762194;81;25815;-83
2021/03/27 05:52:36;;;;;;;69.65;33.23;;;;;;;1.78;73.81;97513.66;1762100;80;25739;-82
2021/03/27 05:55:21;;;;;;;65.50;32.15;;;;;;;1.93;73.74;97509.95;1781536;80;25756;-84
2021/03/27 05:58:21;;;;;;;68.37;31.23;;;;;;;2.04;73.64;97513.69;1780611;80;27575;-84
2021/03/27 06:01:30;;;;;;;64.42;31.15;;;;;;;2.14;73.55;97514.42;1757705;80;25741;-83
2021/03/27 06:04:32;;;;;;;54.20;29.15;;;;;;;2.25;73.48;97508.83;1781522;80;25722;-83
2021/03/27 06:07:48;;;;;;;55.67;29.30;;;;;;;2.36;73.51;97509.90;1780488;80;25833;-83
2021/03/27 06:10:27;;;;;;;60.20;28.10;;;;;;;2.49;73.46;97502.81;1781573;80;25820;-83
2021/03/27 06:13:47;;;;;;;47.50;26.80;;;;;;;2.65;73.44;97502.07;1781534;80;27564;-84
2021/03/27 06:16:31;;;;;;;58.28;28.80;;;;;;;2.79;73.32;97508.11;1781463;80;25621;-82
2021/03/27 06:19:50;;;;;;;54.35;27.93;;;;;;;2.96;73.15;97496.52;1780879;80;25796;-82
2021/03/27 06:22:59;;;;;;;56.40;29.57;;;;;;;3.12;73.07;97499.25;1781464;80;25779;-82
2021/03/27 06:25:50;;;;;;;60.15;30.52;;;;;;;3.32;73.07;97502.45;1781524;80;25722;-81
2021/03/27 06:28:47;;;;;;;63.45;30.43;;;;;;;3.50;72.93;97491.66;1781562;80;27520;-82
2021/03/27 06:31:20;;;;;;;65.30;32.63;;;;;;;3.66;72.84;97491.66;1781438;80;26164;-83
2021/03/27 06:34:30;;;;;;;63.73;32.73;;;;;;;3.82;72.72;97485.49;1775578;80;25715;-83
2021/03/27 06:37:31;;;;;;;62.73;31.60;;;;;;;3.95;72.59;97493.34;1781616;80;26156;-81
2021/03/27 06:40:25;;;;;;;58.70;31.10;;;;;;;4.12;72.50;97482.11;1781518;80;25752;-82
2021/03/27 06:43:38;;;;;;;61.05;33.55;;;;;;;4.29;72.36;97482.44;1781490;80;28412;-84
2021/03/27 06:46:51;;;;;;;72.58;39.18;;;;;;;4.46;72.20;97473.89;1770844;80;25763;-83
2021/03/27 06:49:29;;;;;;;69.25;39.20;;;;;;;4.68;72.20;97477.66;1770898;81;26500;-84
2021/03/27 06:52:36;;;;;;;66.02;32.33;;;;;;;4.91;72.20;97468.36;1770551;80;25762;-84
2021/03/27 06:55:26;;;;;;;65.17;33.67;;;;;;;5.19;71.86;97470.07;1770749;80;26279;-84
2021/03/27 06:58:31;;;;;;;52.23;29.23;;;;;;;5.44;71.51;97465.70;1770673;81;28549;-83
2021/03/27 07:01:47;;;;;;;45.48;27.48;;;;;;;5.67;71.32;97468.91;1770676;81;25652;-83
2021/03/27 07:04:41;;;;;;;40.67;24.82;;;;;;;5.95;71.02;97470.03;1770860;81;25754;-82
2021/03/27 07:08:03;;;;;;;39.75;23.62;;;;;;;6.26;70.23;97473.95;1770737;80;25833;-83
2021/03/27 07:10:50;;;;;;;42.10;25.30;;;;;;;6.54;69.64;97467.44;1770704;80;25982;-84
2021/03/27 07:13:46;;;;;;;42.65;23.95;;;;;;;6.90;68.98;97470.71;1765282;81;27779;-83
2021/03/27 07:16:51;;;;;;;39.08;22.62;;;;;;;7.15;68.47;97470.72;1770746;80;25291;-83
2021/03/27 07:20:05;;;;;;;36.40;22.75;;;;;;;7.39;67.85;97465.53;1770774;80;25350;-83
2021/03/27 07:23:07;;;;;;;36.98;22.35;;;;;;;7.67;67.11;97471.83;1770854;80;25696;-82
2021/03/27 07:26:04;;;;;;;34.27;21.23;;;;;;;7.94;66.62;97476.95;1770829;80;25837;-82
2021/03/27 07:28:48;;;;;;;38.63;22.27;;;;;;;8.20;66.37;97469.12;1770837;81;27494;-84
2021/03/27 07:31:27;;;;;;;32.88;20.55;;;;;;;8.46;66.15;97463.63;1770258;80;25790;-86
2021/03/27 07:34:16;;;;;;;37.23;22.27;;;;;;;8.71;65.60;97470.20;1686772;83;25809;-84
2021/03/27 07:37:26;;;;;;;36.73;20.08;;;;;;;9.01;65.45;97466.76;1687298;84;26099;-82
2021/03/27 07:43:05;;;;;;;31.82;20.17;;;;;;;10.03;63.36;97453.13;1849536;76;25600;-84
2021/03/27 07:46:10;;;;;;;37.35;21.30;;;;;;;10.30;62.87;97463.44;1820196;78;25335;-83
2021/03/27 07:48:57;;;;;;;32.00;20.20;;;;;;;10.65;62.17;97459.45;1820184;78;27384;-85
2021/03/27 07:52:08;;;;;;;37.38;20.25;;;;;;;11.07;61.23;97455.41;1786740;78;25674;-84
2021/03/27 07:54:47;;;;;;;34.35;20.25;;;;;;;11.26;60.29;97464.99;1820178;78;25730;-84
2021/03/27 07:57:45;;;;;;;37.90;21.75;;;;;;;11.47;60.05;97461.45;1820210;78;25331;-85
2021/03/27 08:00:47;;;;;;;31.00;20.70;;;;;;;11.88;59.38;97461.58;1820128;78;25738;-85
2021/03/27 08:03:37;;;;;;;30.10;20.45;;;;;;;12.34;59.44;97466.64;1819750;78;27500;-84
2021/03/27 08:06:31;;;;;;;27.42;18.85;;;;;;;12.77;58.38;97453.66;1820193;78;25746;-83
2021/03/27 08:09:28;;;;;;;28.30;16.95;;;;;;;13.09;57.62;97452.47;1820117;77;25678;-84
2021/03/27 08:12:32;;;;;;;29.02;17.60;;;;;;;13.44;56.37;97451.86;1820045;77;25739;-84
2021/03/27 08:15:05;;;;;;;28.10;18.52;;;;;;;13.77;55.57;97450.88;1820145;78;25777;-84
2021/03/27 08:17:41;;;;;;;29.27;18.73;;;;;;;14.22;55.20;97456.70;1820042;78;28484;-84
2021/03/27 08:20:47;;;;;;;25.82;18.32;;;;;;;14.55;54.47;97454.81;1819974;78;25718;-83
2021/03/27 08:23:45;;;;;;;30.32;18.67;;;;;;;14.81;53.35;97453.52;1818966;77;26317;-82
2021/03/27 08:26:54;;;;;;;25.65;17.87;;;;;;;14.98;52.17;97456.33;1818477;78;25657;-83
2021/03/27 08:30:01;;;;;;;26.57;17.87;;;;;;;15.19;52.14;97454.91;1820141;78;25723;-83
2021/03/27 08:33:08;;;;;;;33.58;19.60;;;;;;;15.35;50.66;97454.97;1820144;78;27542;-85
2021/03/27 08:36:17;;;;;;;29.82;18.87;;;;;;;15.58;50.23;97457.38;1820004;78;26226;-84
2021/03/27 08:39:22;;;;;;;26.97;18.87;;;;;;;15.77;49.48;97446.59;1820084;77;25706;-85
2021/03/27 08:42:18;;;;;;;26.42;19.20;;;;;;;16.07;48.52;97447.13;1819861;77;25793;-87
2021/03/27 08:45:09;;;;;;;29.67;20.52;;;;;;;16.23;47.44;97444.69;1812648;78;25811;-85
2021/03/27 08:48:01;;;;;;;30.23;19.85;;;;;;;16.33;46.71;97443.49;1819930;78;27476;-85
2021/03/27 08:51:10;;;;;;;27.85;18.98;;;;;;;16.41;46.37;97434.93;1818680;78;26068;-85
2021/03/27 08:54:11;;;;;;;29.52;19.77;;;;;;;16.51;45.71;97444.62;1819576;77;25836;-84
2021/03/27 08:56:53;;;;;;;29.30;19.55;;;;;;;16.64;45.20;97433.42;1814869;78;25813;-84
2021/03/27 09:00:16;;;;;;;28.83;19.37;;;;;;;16.81;45.14;97433.38;1819879;78;25790;-82
2021/03/27 09:02:58;;;;;;;24.57;18.23;;;;;;;16.86;44.31;97425.29;1819323;78;28479;-83
2021/03/27 09:05:43;;;;;;;27.67;19.67;;;;;;;16.99;43.83;97418.66;1819734;78;26112;-83
2021/03/27 09:08:55;;;;;;;30.52;20.55;;;;;;;17.13;43.09;97412.59;1819451;78;25711;-87
2021/03/27 09:11:44;;;;;;;31.82;22.00;;;;;;;17.01;42.05;97416.50;1819578;78;26087;-84
2021/03/27 09:14:40;;;;;;;28.35;19.02;;;;;;;17.04;41.90;97411.35;1819500;77;25728;-82
2021/03/27 09:17:41;;;;;;;35.15;21.85;;;;;;;17.22;40.71;97416.52;1804778;78;28494;-82
2021/03/27 09:20:39;;;;;;;33.20;22.02;;;;;;;17.25;41.17;97408.38;1819450;78;26121;-82
2021/03/27 09:23:33;;;;;;;31.00;20.90;;;;;;;17.38;41.09;97410.72;1819429;77;25697;-82
2021/03/27 09:26:35;;;;;;;30.15;20.25;;;;;;;17.63;41.34;97409.66;1819555;78;26207;-83
2021/03/27 09:29:29;;;;;;;34.03;20.70;;;;;;;18.01;41.54;97414.69;1819875;78;25808;-85
2021/03/27 09:32:14;;;;;;;29.87;20.25;;;;;;;18.00;40.38;97406.20;1789312;78;28484;-83
2021/03/27 09:35:22;;;;;;;28.07;20.30;;;;;;;18.06;40.84;97410.66;1819307;77;25677;-83
2021/03/27 09:38:19;;;;;;;31.30;20.30;;;;;;;18.21;40.48;97405.34;1819487;78;25673;-85
2021/03/27 09:41:37;;;;;;;30.88;21.07;;;;;;;18.41;40.40;97405.21;1819344;78;26087;-85
2021/03/27 09:44:42;;;;;;;27.87;20.30;;;;;;;18.51;40.09;97398.45;1819261;78;25687;-85
2021/03/27 09:47:36;;;;;;;31.37;20.05;;;;;;;18.57;39.44;97391.41;1818543;78;28457;-84
2021/03/27 09:50:21;;;;;;;28.65;19.30;;;;;;;18.33;39.20;97388.22;1819366;78;25682;-82
2021/03/27 09:53:27;;;;;;;29.67;19.73;;;;;;;18.12;38.82;97386.37;1819344;77;25713;-84
2021/03/27 09:56:14;;;;;;;29.57;20.17;;;;;;;18.11;39.29;97380.66;1819440;78;26146;-82
2021/03/27 09:59:10;;;;;;;25.57;19.10;;;;;;;18.56;38.86;97375.27;1819470;78;25781;-87
2021/03/27 10:02:15;;;;;;;28.12;18.17;;;;;;;18.96;37.75;97387.01;1819383;78;28409;-84
2021/03/27 10:04:48;;;;;;;27.77;19.42;;;;;;;19.20;36.68;97383.33;1819297;78;26222;-83
2021/03/27 10:08:03;;;;;;;27.85;19.00;;;;;;;19.24;36.26;97394.00;1819256;78;25766;-83
2021/03/27 10:10:48;;;;;;;27.25;18.07;;;;;;;19.21;36.14;97391.24;1819382;78;25733;-85
2021/03/27 10:13:58;;;;;;;25.05;17.65;;;;;;;19.42;36.92;97390.80;1819469;78;25710;-85
2021/03/27 10:16:59;;;;;;;24.45;17.42;;;;;;;19.78;36.91;97388.48;1819447;77;28399;-84
2021/03/27 10:19:31;;;;;;;24.82;18.07;;;;;;;20.23;36.84;97384.70;1819405;77;25747;-85
2021/03/27 10:22:28;;;;;;;25.85;17.70;;;;;;;20.52;36.40;97380.89;1819379;78;25888;-83
2021/03/27 10:25:27;;;;;;;27.93;17.17;;;;;;;20.66;35.90;97380.58;1819320;78;26287;-82
2021/03/27 10:28:03;;;;;;;24.80;17.90;;;;;;;20.79;35.49;97373.16;1819489;78;25798;-85
2021/03/27 10:30:53;;;;;;;24.18;17.35;;;;;;;20.75;35.32;97359.20;1819007;78;27503;-83
2021/03/27 10:33:57;;;;;;;25.25;17.25;;;;;;;20.87;35.61;97361.63;1819276;78;26134;-81
2021/03/27 10:36:57;;;;;;;20.12;15.88;;;;;;;20.87;34.61;97367.12;1819471;78;25694;-84
2021/03/27 10:39:57;;;;;;;24.77;15.15;;;;;;;20.91;35.18;97361.33;1819469;78;26149;-86
2021/03/27 10:42:42;;;;;;;17.45;12.95;;;;;;;21.35;35.29;97366.17;1820510;77;25938;-85
2021/03/27 10:45:21;;;;;;;18.02;12.70;;;;;;;21.71;34.67;97355.27;1822549;78;28227;-86
2021/03/27 10:48:09;;;;;;;14.53;10.80;;;;;;;21.77;33.67;97357.42;1822407;78;26102;-83
2021/03/27 10:51:01;;;;;;;15.45;10.98;;;;;;;21.80;32.78;97351.36;1822686;78;25804;-86
2021/03/27 10:53:59;;;;;;;18.52;12.33;;;;;;;21.66;30.77;97360.78;1822798;78;25749;-86
2021/03/27 10:57:16;;;;;;;17.80;11.73;;;;;;;21.44;31.15;97357.05;1822642;78;25718;-81
2021/03/27 11:00:08;;;;;;;15.35;11.68;;;;;;;21.33;30.35;97349.15;1822573;78;27416;-86
2021/03/27 11:03:16;;;;;;;14.03;10.98;;;;;;;21.35;30.84;97355.19;1822613;78;25743;-88
2021/03/27 11:05:58;;;;;;;14.68;10.55;;;;;;;21.38;30.19;97358.17;1822546;78;25650;-83
2021/03/27 11:09:03;;;;;;;12.95;9.88;;;;;;;21.27;30.91;97351.63;1821732;78;25679;-82
2021/03/27 11:12:14;;;;;;;11.97;10.15;;;;;;;21.35;31.00;97341.45;1786616;80;25892;-85
2021/03/27 11:15:22;;;;;;;12.65;9.43;;;;;;;21.70;31.28;97338.52;1758834;81;27570;-82
2021/03/27 11:18:45;;;;;;;15.70;9.80;;;;;;;21.74;30.60;97342.31;1767364;80;25732;-85
2021/03/27 11:21:51;;;;;;;13.78;9.35;;;;;;;21.22;28.91;97337.39;1767469;81;25751;-84
2021/03/27 11:24:38;;;;;;;14.58;10.00;;;;;;;20.80;29.77;97345.45;1765938;80;25345;-86
2021/03/27 11:27:34;;;;;;;15.13;10.50;;;;;;;20.66;30.21;97346.30;1767484;81;25877;-87
2021/03/27 11:30:25;;;;;;;14.18;10.90;;;;;;;20.45;30.15;97348.26;1764038;80;27506;-85
2021/03/27 11:33:38;;;;;;;21.40;10.32;;;;;;;20.28;29.57;97353.19;1767452;81;25658;-87
2021/03/27 11:36:23;;;;;;;17.98;10.00;;;;;;;20.14;30.46;97357.02;1767713;81;25755;-84
2021/03/27 11:39:20;;;;;;;16.45;10.88;;;;;;;20.04;29.13;97362.50;1767545;80;25675;-92
2021/03/27 11:42:27;;;;;;;15.65;10.43;;;;;;;19.85;28.80;97359.99;1767504;81;25778;-84
2021/03/27 11:45:19;;;;;;;14.53;9.10;;;;;;;19.66;29.28;97356.41;1767614;80;28395;-86
2021/03/27 11:47:59;;;;;;;;;;;;;;;19.54;29.90;97361.31;1770145;81;25686;-84
2021/03/27 11:50:55;;;;;;;12.63;9.95;;;;;;;19.35;28.78;97353.27;1767619;80;25793;-83
2021/03/27 11:53:57;;;;;;;13.03;10.78;;;;;;;19.15;29.75;97360.04;1766237;79;25735;-86
2021/03/27 11:56:39;;;;;;;16.70;10.85;;;;;;;19.03;29.55;97358.34;1760248;80;25831;-91
2021/03/27 12:02:39;;;;;;;12.30;9.43;;;;;;;18.70;30.25;97366.38;1767461;81;25973;-86
2021/03/27 12:05:27;;;;;;;16.93;10.40;;;;;;;18.63;29.52;97358.94;1767060;80;25817;-89
2021/03/27 12:08:30;;;;;;;14.60;11.48;;;;;;;18.60;30.49;97363.55;1767605;80;26236;-89
2021/03/27 12:11:49;;;;;;;16.12;10.82;;;;;;;18.53;29.56;97360.75;1767618;81;25869;-84
2021/03/27 12:14:57;;;;;;;14.78;11.25;;;;;;;18.32;30.28;97363.34;1767566;81;28501;-85
2021/03/27 12:18:06;;;;;;;16.00;10.50;;;;;;;18.23;30.19;97359.43;1767498;81;25806;-85
2021/03/27 12:20:47;;;;;;;13.60;10.72;;;;;;;18.15;30.42;97361.28;1767525;80;26229;-84
2021/03/27 12:23:35;;;;;;;16.50;10.55;;;;;;;18.04;29.43;97350.00;1751553;81;25724;-86
2021/03/27 12:26:23;;;;;;;16.20;10.93;;;;;;;17.93;29.92;97364.64;1767513;81;25806;-86
2021/03/27 12:29:14;;;;;;;17.12;11.15;;;;;;;17.76;30.33;97365.28;1767456;79;27504;-85
2021/03/27 12:31:56;;;;;;;13.55;11.20;;;;;;;17.60;30.06;97360.20;1767514;80;25667;-87
2021/03/27 12:34:53;;;;;;;17.12;10.63;;;;;;;17.59;30.96;97359.38;1767732;79;26351;-85
2021/03/27 12:38:00;;;;;;;16.50;10.23;;;;;;;17.71;31.26;97355.70;1767629;79;25861;-86
2021/03/27 12:40:38;;;;;;;16.67;10.13;;;;;;;17.66;31.04;97344.72;1767656;81;25654;-86
2021/03/27 12:43:11;;;;;;;23.50;14.90;;;;;;;17.66;31.03;97344.72;1765705;79;28458;-86
2021/03/27 12:45:48;;;;;;;14.25;9.78;;;;;;;17.74;31.07;97347.00;1761490;81;25743;-87
2021/03/27 12:48:41;;;;;;;13.38;9.38;;;;;;;17.82;31.18;97352.81;1761653;81;25698;-85
2021/03/27 12:51:42;;;;;;;13.68;9.93;;;;;;;17.91;30.75;97353.16;1761568;81;26224;-86
2021/03/27 12:54:38;;;;;;;13.70;9.58;;;;;;;17.89;30.69;97353.95;1761692;81;25743;-87
2021/03/27 12:57:17;;;;;;;13.85;9.33;;;;;;;17.73;30.49;97353.00;1740206;81;28490;-88
2021/03/27 12:59:56;;;;;;;19.75;12.68;;;;;;;17.58;30.88;97360.45;1760358;81;25726;-83
2021/03/27 13:03:08;;;;;;;30.97;18.07;;;;;;;17.45;31.33;97343.13;1761515;81;25239;-83
2021/03/27 13:05:44;;;;;;;14.80;9.60;;;;;;;17.52;31.72;97360.64;1761696;81;25763;-86
2021/03/27 13:08:40;;;;;;;12.05;8.35;;;;;;;17.42;31.17;97357.27;1756262;80;25799;-85
2021/03/27 13:11:16;;;;;;;14.50;9.50;;;;;;;17.39;31.56;97352.89;1761650;81;27504;-86
2021/03/27 13:13:57;;;;;;;22.42;12.07;;;;;;;17.33;30.66;97364.27;1740212;81;26188;-86
2021/03/27 13:16:46;;;;;;;18.65;9.33;;;;;;;17.21;31.23;97364.40;1758437;81;25711;-86
2021/03/27 13:19:38;;;;;;;16.50;9.30;;;;;;;17.21;31.25;97364.94;1761540;81;26706;-83
2021/03/27 13:22:14;;;;;;;13.87;8.83;;;;;;;17.15;31.31;97365.41;1761768;81;25743;-85
2021/03/27 13:25:20;;;;;;;15.15;10.23;;;;;;;17.05;31.28;97365.82;1761705;81;27369;-85
2021/03/27 13:28:02;;;;;;;17.02;9.55;;;;;;;16.99;31.14;97369.58;1761562;81;26154;-84
2021/03/27 13:30:50;;;;;;;15.45;9.73;;;;;;;16.87;31.34;97371.05;1761673;81;25767;-85
2021/03/27 13:33:23;;;;;;;14.55;9.83;;;;;;;16.75;31.42;97375.26;1761490;81;26463;-88
2021/03/27 13:35:56;;;;;;;14.70;9.48;;;;;;;16.69;31.58;97377.61;1761590;81;25823;-85
2021/03/27 13:38:47;;;;;;;18.32;9.43;;;;;;;16.67;31.97;97378.39;1761672;81;27562;-87